Latest Weather Observations for Melbourne Airport

IDV60801

Issued at 11:05 am EST Wednesday 17 September 2014 (issued every 30 minutes, with the page automatically refreshed every 10 minutes)

About weather observations | Map of weather stations | Latest weather observations for VIC | Other Formats
Station Details ID: 086282 Name: MELBOURNE AIRPORT Lat: -37.67 Lon: 144.83 Height: 113.4 m
Data from the previous 72 hours. | See also: Recent months at Melbourne Airport
Date/Time
EST
Temp
°C
App
Temp
°C
Dew
Point
Rel
Hum
%
Delta-T
°C
Wind Press
QNH
hPa
Press
MSL
hPa
Rain
since 9 am
mm
Dir
 
Spd
km/h
Gust
km/h
Spd
kts
Gust
kts
17/11:02am 10.9 2.8 7.1 77 1.8 WSW 39 57 21 31 1014.4 1014.5 0.0
17/11:00am 12.1 3.9 4.7 60 3.4 W 37 50 20 27 1014.3 1014.4 0.0
17/10:30am 12.8 5.3 3.7 54 4.1 WSW 32 44 17 24 1014.2 1014.3 0.0
17/10:00am 12.1 5.0 5.5 64 3.1 W 32 43 17 23 1014.4 1014.5 0.0
17/09:31am 12.2 5.4 5.3 62 3.2 WSW 30 59 16 32 1014.2 1014.3 0.0
17/09:30am 12.6 5.9 5.6 62 3.3 WSW 30 44 16 24 1014.2 1014.3 0.0
17/09:00am 11.9 4.7 5.2 63 3.1 W 32 41 17 22 1014.1 1014.2 2.0
17/08:30am 11.5 5.9 5.5 66 2.8 W 24 35 13 19 1014.1 1014.2 2.0
17/08:00am 10.6 5.0 5.4 70 2.4 W 24 30 13 16 1014.0 1014.1 2.0
17/07:30am 9.7 4.7 4.8 71 2.2 W 20 28 11 15 1013.8 1013.9 2.0
17/07:00am 9.1 3.7 4.6 73 2.0 WNW 22 32 12 17 1013.6 1013.6 2.0
17/06:30am 9.4 4.5 5.0 74 2.0 WNW 20 33 11 18 1013.6 1013.6 2.0
17/06:00am 9.2 2.8 5.2 76 1.8 W 28 35 15 19 1013.4 1013.4 2.0
17/05:30am 9.7 3.8 5.8 77 1.8 W 26 33 14 18 1013.3 1013.3 2.0
17/05:00am 9.1 5.1 6.5 84 1.2 WNW 17 26 9 14 1013.2 1013.2 2.0
17/04:30am 8.9 5.2 6.1 82 1.3 NW 15 20 8 11 1013.0 1013.0 2.0
17/04:00am 7.9 4.2 6.2 89 0.8 N 15 17 8 9 1012.9 1012.9 2.0
17/03:30am 8.2 4.8 6.0 86 1.0 N 13 17 7 9 1012.9 1012.9 2.0
17/03:00am 8.4 5.0 6.0 85 1.1 NNW 13 15 7 8 1013.0 1013.0 2.0
17/02:30am 9.0 5.7 6.2 82 1.3 NW 13 17 7 9 1013.1 1013.1 2.0
17/02:00am 6.9 2.2 5.3 89 0.7 WNW 19 24 10 13 1013.2 1013.2 2.0
17/01:30am 7.5 3.7 5.7 88 0.8 NW 15 17 8 9 1013.4 1013.4 2.0
17/01:00am 8.3 4.9 6.1 86 1.0 NW 13 17 7 9 1013.5 1013.5 2.0
17/12:30am 7.9 4.9 6.2 89 0.8 WNW 11 11 6 6 1013.5 1013.5 2.0
17/12:00am 8.7 6.2 6.6 87 1.0 WNW 9 11 5 6 1013.5 1013.5 2.0
 
Date/Time
EST
Temp
°C
App
Temp
°C
Dew
Point
Rel
Hum
%
Delta-T
°C
Wind Press
QNH
hPa
Press
MSL
hPa
Rain
since 9 am
mm
Dir
 
Spd
km/h
Gust
km/h
Spd
kts
Gust
kts
16/11:30pm 9.7 7.1 6.3 79 1.6 WNW 9 13 5 7 1013.6 1013.6 2.0
16/11:00pm 9.4 6.5 6.4 81 1.4 W 11 13 6 7 1013.8 1013.9 2.0
16/10:30pm 8.8 5.5 6.4 85 1.1 WNW 13 15 7 8 1014.1 1014.2 2.0
16/10:00pm 7.5 3.6 5.3 86 1.0 WNW 15 19 8 10 1014.1 1014.2 2.0
16/09:30pm 6.9 3.6 4.6 85 1.0 WNW 11 13 6 7 1014.0 1014.1 2.0
16/09:00pm 7.6 3.9 4.7 82 1.3 NW 13 17 7 9 1013.9 1014.0 2.0
16/08:30pm 7.2 3.2 4.7 84 1.1 W 15 17 8 9 1013.8 1013.9 2.0
16/08:00pm 7.6 4.4 4.9 83 1.2 W 11 13 6 7 1013.5 1013.5 2.0
16/07:30pm 8.6 4.7 5.3 80 1.5 W 15 17 8 9 1013.4 1013.4 2.0
16/07:00pm 10.1 6.3 6.0 76 1.9 SW 15 19 8 10 1013.0 1013.0 2.0
16/06:30pm 11.1 7.1 6.5 73 2.2 SW 17 26 9 14 1012.8 1012.8 2.0
16/06:00pm 12.4 6.5 5.8 64 3.1 SW 26 37 14 20 1012.2 1012.2 2.0
16/05:30pm 12.7 9.1 8.3 74 2.2 WSW 17 26 9 14 1012.1 1012.1 2.0
16/05:00pm 12.7 8.6 8.7 76 2.0 WSW 20 33 11 18 1011.7 1011.7 2.0
16/04:30pm 12.4 8.7 9.3 81 1.6 WSW 19 26 10 14 1011.5 1011.5 2.0
16/04:00pm 11.9 10.5 10.9 94 0.5 W 9 13 5 7 1011.2 1011.2 2.0
16/03:30pm 11.9 10.1 10.9 94 0.5 SW 11 17 6 9 1011.1 1011.1 2.0
16/03:14pm 11.5 8.1 10.7 95 0.4 SW 19 28 10 15 1011.0 1011.0 2.0
16/03:00pm 11.7 7.4 10.7 94 0.5 SW 24 32 13 17 1010.9 1010.9 1.8
16/02:30pm 11.9 8.0 10.9 94 0.5 SSW 22 28 12 15 1010.6 1010.6 1.8
16/02:25pm 11.9 8.0 10.8 93 0.6 SSW 22 30 12 16 1010.5 1010.5 1.8
16/02:12pm 11.7 6.6 10.7 94 0.5 SSW 28 37 15 20 1010.4 1010.4 1.8
16/02:00pm 11.8 7.2 11.0 95 0.4 SSW 26 37 14 20 1010.3 1010.3 1.4
16/01:43pm 12.0 6.7 11.2 95 0.4 SSW 30 39 16 21 1010.0 1010.0 1.2
16/01:30pm 12.3 8.6 11.5 95 0.4 SW 22 30 12 16 1010.0 1010.0 1.0
16/01:21pm 12.6 8.5 11.3 92 0.7 WSW 24 32 13 17 1010.0 1010.0 0.6
16/01:00pm 12.7 9.3 11.4 92 0.7 WSW 20 26 11 14 1009.9 1009.9 0.6
16/12:30pm 12.8 10.0 11.3 91 0.8 SW 17 26 9 14 1010.0 1010.0 0.2
16/12:09pm 13.1 9.2 10.8 86 1.2 SW 22 30 12 16 1010.2 1010.2 0.0
16/12:00pm 13.5 9.2 10.9 84 1.4 SW 24 32 13 17 1010.3 1010.3 0.0
16/11:30am 13.7 8.8 10.1 79 1.9 SW 26 32 14 17 1010.3 1010.3 0.0
16/11:00am 13.7 10.0 10.1 79 1.9 SW 20 28 11 15 1010.4 1010.4 0.0
16/10:30am 13.3 9.8 10.2 81 1.6 WSW 19 26 10 14 1010.4 1010.4 0.0
16/10:00am 13.1 9.4 10.2 82 1.5 WSW 20 28 11 15 1010.4 1010.4 0.0
16/09:30am 12.6 8.1 10.1 85 1.3 WSW 24 32 13 17 1010.1 1010.1 0.0
16/09:00am 12.6 8.5 10.1 85 1.3 WSW 22 28 12 15 1010.2 1010.2 0.0
16/08:30am 12.4 9.4 10.5 88 1.0 SW 17 22 9 12 1010.1 1010.1 0.0
16/08:00am 12.1 10.1 10.2 88 1.0 WSW 11 17 6 9 1009.6 1009.6 0.0
16/07:30am 11.7 9.0 10.3 91 0.7 WSW 15 22 8 12 1009.6 1009.6 0.0
16/07:00am 11.6 8.1 10.2 91 0.7 WSW 19 24 10 13 1009.1 1009.2 0.0
16/06:30am 11.4 7.7 10.2 92 0.6 WSW 20 28 11 15 1008.8 1008.9 0.0
16/06:00am 11.4 7.8 10.4 94 0.5 WSW 20 26 11 14 1008.4 1008.5 0.0
16/05:30am 11.4 7.7 10.2 92 0.6 WSW 20 26 11 14 1008.2 1008.3 0.0
16/05:00am 11.2 7.5 10.2 94 0.5 W 20 28 11 15 1007.9 1008.0 0.0
16/04:30am 11.1 7.9 10.1 94 0.5 W 17 24 9 13 1007.5 1007.6 0.0
16/04:00am 11.1 7.6 10.1 94 0.5 W 19 26 10 14 1007.4 1007.5 0.0
16/03:30am 10.8 8.0 10.0 95 0.4 W 15 17 8 9 1007.4 1007.5 0.0
16/03:00am 10.6 7.7 9.8 95 0.4 W 15 20 8 11 1007.3 1007.4 0.0
16/02:30am 11.0 7.9 10.2 95 0.4 W 17 19 9 10 1007.6 1007.7 0.0
16/02:00am 11.1 7.6 10.1 94 0.5 W 19 24 10 13 1007.9 1008.0 0.0
16/01:30am 11.2 8.1 10.4 95 0.4 W 17 24 9 13 1008.1 1008.2 0.0
16/01:00am 11.2 7.8 10.6 96 0.3 W 19 26 10 14 1008.5 1008.6 0.0
16/12:30am 11.1 8.1 10.5 96 0.3 W 17 22 9 12 1008.6 1008.7 0.0
16/12:00am 10.0 7.0 9.4 96 0.3 W 15 19 8 10 1008.5 1008.6 0.0
 
Date/Time
EST
Temp
°C
App
Temp
°C
Dew
Point
Rel
Hum
%
Delta-T
°C
Wind Press
QNH
hPa
Press
MSL
hPa
Rain
since 9 am
mm
Dir
 
Spd
km/h
Gust
km/h
Spd
kts
Gust
kts
15/11:30pm 10.3 7.4 9.5 95 0.4 W 15 17 8 9 1008.8 1008.9 0.0
15/11:00pm 9.9 6.9 9.3 96 0.3 W 15 19 8 10 1008.9 1009.0 0.0
15/10:30pm 10.3 6.9 9.1 92 0.6 W 17 19 9 10 1009.3 1009.3 0.0
15/10:00pm 10.1 7.3 8.7 91 0.7 W 13 15 7 8 1009.4 1009.4 0.0
15/09:30pm 11.2 8.6 9.4 89 0.9 W 13 15 7 8 1009.3 1009.3 0.0
15/09:00pm 12.2 10.8 9.7 85 1.3 SW 7 9 4 5 1009.3 1009.3 0.0
15/08:30pm 13.7 12.7 10.3 80 1.8 E 6 9 3 5 1009.4 1009.4 0.0
15/08:00pm 14.4 12.4 10.0 75 2.3 ESE 11 13 6 7 1009.5 1009.5 0.0
15/07:30pm 13.9 12.4 10.5 80 1.8 S 9 11 5 6 1009.7 1009.7 0.0
15/07:00pm 14.1 12.2 10.5 79 1.9 S 11 13 6 7 1009.5 1009.5 0.0
15/06:30pm 15.8 14.2 10.3 70 2.9 ESE 9 15 5 8 1009.4 1009.4 0.0
15/06:00pm 16.0 14.3 9.7 66 3.3 ENE 9 11 5 6 1009.4 1009.4 0.0
15/05:30pm 16.7 13.6 8.8 59 4.1 E 15 19 8 10 1009.4 1009.4 0.0
15/05:00pm 17.5 14.2 7.9 53 4.9 E 15 19 8 10 1009.4 1009.4 0.0
15/04:30pm 17.6 13.5 7.8 52 5.0 E 19 26 10 14 1009.5 1009.5 0.0
15/04:00pm 18.0 14.4 8.3 53 5.0 E 17 26 9 14 1009.7 1009.7 0.0
15/03:30pm 17.7 13.7 8.4 54 4.8 ESE 19 26 10 14 1009.8 1009.8 0.0
15/03:00pm 16.0 14.8 10.4 69 3.0 SSW 7 11 4 6 1010.9 1010.9 0.0
15/02:30pm 15.7 13.3 10.2 70 2.9 S 13 15 7 8 1011.0 1011.0 0.0
15/02:00pm 16.6 13.6 9.3 62 3.8 ESE 15 19 8 10 1011.2 1011.2 0.0
15/01:30pm 16.5 13.9 9.2 62 3.8 ESE 13 15 7 8 1011.7 1011.7 0.0
15/01:00pm 16.2 13.2 9.3 63 3.6 E 15 19 8 10 1012.0 1012.0 0.0
15/12:30pm 16.7 13.9 10.1 65 3.5 E 15 20 8 11 1012.6 1012.6 0.0
15/12:00pm 15.5 12.9 9.5 67 3.1 ESE 13 19 7 10 1013.2 1013.2 0.0
15/11:30am 15.2 12.7 9.8 70 2.8 ESE 13 17 7 9 1013.8 1013.9 0.0
15/11:00am 14.3 12.6 9.9 75 2.3 E 9 13 5 7 1014.5 1014.6 0.0
15/10:30am 13.3 11.9 9.6 78 1.9 E 7 11 4 6 1015.1 1015.2 0.0
15/10:00am 12.8 11.8 10.3 85 1.3 NE 6 9 3 5 1015.6 1015.7 0.0
15/09:30am 12.3 11.1 10.2 87 1.1 N 7 11 4 6 1016.1 1016.2 0.0
15/09:21am 11.8 10.5 10.0 89 0.9 N 7 11 4 6 1016.2 1016.3 0.0
15/09:00am 11.3 9.6 9.7 90 0.8 N 9 13 5 7 1016.3 1016.4 0.2
15/08:30am 10.6 8.8 9.6 93 0.5 N 9 11 5 6 1016.6 1016.7 0.2
15/08:00am 10.4 8.6 9.6 95 0.4 NNE 9 11 5 6 1016.7 1016.8 0.2
15/07:30am 9.9 9.8 9.5 97 0.2 CALM 0 0 0 0 1016.8 1016.9 0.2
15/07:23am 10.0 9.9 9.4 96 0.3 CALM 0 0 0 0 1016.7 1016.8 0.2
15/07:00am 9.2 9.0 9.0 99 0.1 CALM 0 0 0 0 1016.6 1016.7 0.2
15/06:44am 9.0 8.7 8.6 97 0.2 CALM 0 0 0 0 1016.6 1016.7 0.2
15/06:30am 8.7 8.4 8.5 99 0.1 CALM 0 0 0 0 1016.5 1016.6 0.2
15/06:15am 8.8 8.1 8.4 97 0.2 S 2 7 1 4 1016.6 1016.7 0.2
15/06:00am 8.9 8.6 8.7 99 0.1 CALM 0 7 0 4 1016.5 1016.6 0.2
15/05:30am 9.0 7.0 8.6 97 0.2 N 9 11 5 6 1016.5 1016.6 0.2
15/05:00am 9.2 7.1 8.4 95 0.4 NW 9 11 5 6 1016.6 1016.7 0.0
15/04:30am 8.7 6.2 8.1 96 0.3 N 11 13 6 7 1016.6 1016.7 0.0
15/04:00am 7.9 4.9 7.5 97 0.2 NW 13 17 7 9 1016.8 1016.9 0.0
15/03:30am 6.5 4.3 6.1 97 0.2 N 7 13 4 7 1016.5 1016.6 0.0
15/03:00am 8.0 5.7 7.4 96 0.3 N 9 11 5 6 1016.5 1016.6 0.0
15/02:30am 8.3 5.3 7.7 96 0.3 N 13 15 7 8 1017.0 1017.1 0.0
15/02:00am 8.5 6.2 7.4 93 0.5 N 9 11 5 6 1017.6 1017.7 0.0
15/01:30am 8.9 6.8 8.1 95 0.4 WNW 9 11 5 6 1018.3 1018.3 0.0
15/01:00am 8.9 6.8 8.1 95 0.4 WNW 9 11 5 6 1018.9 1018.9 0.0
15/12:30am 8.2 5.9 7.6 96 0.3 WNW 9 9 5 5 1018.9 1018.9 0.0
15/12:00am 8.0 5.7 7.4 96 0.3 W 9 13 5 7 1019.0 1019.0 0.0
 
Date/Time
EST
Temp
°C
App
Temp
°C
Dew
Point
Rel
Hum
%
Delta-T
°C
Wind Press
QNH
hPa
Press
MSL
hPa
Rain
since 9 am
mm
Dir
 
Spd
km/h
Gust
km/h
Spd
kts
Gust
kts
14/11:30pm 8.6 5.9 7.5 93 0.5 WNW 11 13 6 7 1019.3 1019.3 0.0
14/11:00pm 8.5 5.4 7.4 93 0.5 W 13 13 7 7 1019.7 1019.7 0.0
14/10:30pm 8.7 6.4 7.4 91 0.6 W 9 9 5 5 1019.7 1019.7 0.0
14/10:00pm 9.7 7.5 7.8 88 0.9 SW 9 11 5 6 1019.9 1019.9 0.0
14/09:30pm 9.5 7.5 7.2 85 1.1 SW 7 9 4 5 1019.7 1019.7 0.0
14/09:00pm 9.4 7.1 7.5 88 0.9 WSW 9 9 5 5 1019.7 1019.7 0.0
14/08:30pm 10.3 8.2 8.3 87 1.0 SW 9 9 5 5 1019.5 1019.5 0.0
14/08:00pm 11.1 9.1 8.5 84 1.3 SW 9 11 5 6 1019.4 1019.4 0.0
14/07:30pm 11.2 8.7 8.1 81 1.5 SW 11 11 6 6 1019.2 1019.2 0.0
14/07:00pm 11.6 9.3 7.5 76 2.0 SW 9 11 5 6 1019.0 1019.0 0.0
14/06:30pm 11.9 8.7 6.9 71 2.4 SSW 13 15 7 8 1018.7 1018.7 0.0
14/06:00pm 13.0 9.4 6.8 66 3.0 S 15 19 8 10 1018.3 1018.3 0.0
14/05:30pm 14.6 9.4 5.6 54 4.3 S 22 30 12 16 1018.1 1018.1 0.0
14/05:00pm 15.4 10.6 5.6 52 4.7 SSE 20 26 11 14 1017.9 1018.0 0.0
14/04:30pm 16.5 10.9 5.5 48 5.3 S 24 30 13 16 1017.9 1018.0 0.0
14/04:00pm 17.6 11.3 5.7 45 5.8 SSE 28 32 15 17 1017.7 1017.8 0.0
14/03:30pm 18.9 16.7 6.3 43 6.3 E 7 15 4 8 1017.7 1017.8 0.0
14/03:00pm 19.2 16.3 6.4 43 6.4 E 11 13 6 7 1017.8 1017.9 0.0
14/02:30pm 18.5 15.5 5.9 43 6.2 ESE 11 17 6 9 1017.9 1018.0 0.0
14/02:00pm 18.0 16.0 6.3 46 5.8 S 6 15 3 8 1018.5 1018.5 0.0
14/01:30pm 18.4 15.5 6.6 46 5.9 S 11 15 6 8 1018.7 1018.7 0.0
14/01:00pm 17.4 15.2 5.4 45 5.8 NNW 6 13 3 7 1019.2 1019.2 0.0
14/12:30pm 17.4 16.4 5.7 46 5.7 CALM 0 9 0 5 1019.7 1019.7 0.0
14/12:00pm 17.6 15.5 6.8 49 5.4 NNE 7 13 4 7 1020.3 1020.3 0.0
14/11:30am 16.7 15.9 6.3 50 5.1 CALM 0 7 0 4 1020.6 1020.6 0.0

Other Formats:

Comma delimited format used in spreadsheet applications
http://www.bom.gov.au/fwo/IDV60801/IDV60801.94866.axf

JavaScript Object Notation format (JSON) in row-major order
http://www.bom.gov.au/fwo/IDV60801/IDV60801.94866.json